Time;durP1;ratioP1;P1;durP2;ratioP2;P2;SDS_P1;SDS_P2;PMS_P1;PMS_P2;Temp;Humidity;BMP_temperature;BMP_pressure;BME280_temperature;BME280_humidity;BME280_pressure;Samples;Min_cycle;Max_cycle;Signal;HPM_P1;HPM_P2
2021/03/11 00:01:03;;;;;;;13.77;7.87;;;7.10;99.90;;;;;;5054090;28;20234;-75
2021/03/11 00:03:30;;;;;;;13.30;7.40;;;7.10;99.90;;;;;;5039563;28;20202;-75
2021/03/11 00:05:57;;;;;;;10.83;6.83;;;7.20;99.90;;;;;;5059681;28;20276;-75
2021/03/11 00:08:24;;;;;;;11.37;6.97;;;7.20;99.90;;;;;;5060513;28;20210;-74
2021/03/11 00:10:50;;;;;;;14.27;8.93;;;7.20;99.90;;;;;;5051223;28;20274;-74
2021/03/11 00:13:16;;;;;;;11.33;7.43;;;7.20;99.90;;;;;;5046860;28;20216;-74
2021/03/11 00:15:43;;;;;;;13.33;7.27;;;7.20;99.90;;;;;;5032492;28;20691;-75
2021/03/11 00:18:11;;;;;;;11.30;6.33;;;7.20;99.90;;;;;;5058828;28;20209;-74
2021/03/11 00:20:38;;;;;;;13.40;7.87;;;7.20;99.90;;;;;;5048600;28;20249;-75
2021/03/11 00:23:05;;;;;;;13.00;7.30;;;7.20;99.90;;;;;;5023230;28;20238;-74
2021/03/11 00:25:33;;;;;;;10.03;6.27;;;7.20;99.90;;;;;;5023118;28;20909;-74
2021/03/11 00:27:59;;;;;;;14.60;8.30;;;7.20;99.90;;;;;;5039066;28;20915;-74
2021/03/11 00:30:27;;;;;;;13.47;6.97;;;7.20;99.90;;;;;;5027832;28;20219;-75
2021/03/11 00:32:53;;;;;;;15.13;7.10;;;7.20;99.90;;;;;;5030793;28;20285;-75
2021/03/11 00:35:20;;;;;;;10.93;7.00;;;7.20;99.90;;;;;;5027483;28;20284;-74
2021/03/11 00:37:48;;;;;;;13.33;6.70;;;7.20;99.90;;;;;;5042066;28;20229;-74
2021/03/11 00:40:17;;;;;;;13.67;7.20;;;7.20;99.90;;;;;;5024802;28;20360;-75
2021/03/11 00:42:44;;;;;;;11.63;7.10;;;7.20;99.90;;;;;;5042835;28;20766;-74
2021/03/11 00:45:11;;;;;;;11.87;6.80;;;7.20;99.90;;;;;;5037441;28;20900;-74
2021/03/11 00:47:38;;;;;;;15.00;7.90;;;7.20;99.90;;;;;;5027475;28;20206;-74
2021/03/11 00:50:20;;;;;;;12.00;5.50;;;7.20;99.90;;;;;;5038201;28;20264;-74
2021/03/11 00:52:47;;;;;;;11.63;6.33;;;7.30;99.90;;;;;;5041080;28;20202;-74
2021/03/11 00:55:15;;;;;;;9.57;6.17;;;7.30;99.90;;;;;;5027444;28;20211;-74
2021/03/11 00:57:42;;;;;;;12.17;6.93;;;7.30;99.90;;;;;;5039240;28;20639;-73
2021/03/11 01:00:16;;;;;;;10.23;6.53;;;7.30;99.90;;;;;;5020150;28;21805;-74
2021/03/11 01:02:42;;;;;;;9.70;6.43;;;7.30;99.90;;;;;;5038452;28;20246;-74
2021/03/11 01:05:11;;;;;;;12.50;7.43;;;7.40;99.90;;;;;;5020724;28;20282;-74
2021/03/11 01:07:37;;;;;;;15.30;6.90;;;7.40;99.90;;;;;;5037158;28;20260;-74
2021/03/11 01:10:04;;;;;;;10.77;6.23;;;7.40;99.90;;;;;;5021107;28;20197;-73
2021/03/11 01:12:31;;;;;;;10.37;6.00;;;7.40;99.90;;;;;;5020026;28;20518;-75
2021/03/11 01:14:57;;;;;;;9.70;6.10;;;7.40;99.90;;;;;;5034917;28;20283;-74
2021/03/11 01:17:23;;;;;;;11.00;6.03;;;7.40;99.90;;;;;;5038725;28;20208;-74
2021/03/11 01:19:50;;;;;;;13.07;7.00;;;7.40;99.90;;;;;;5046403;28;20305;-74
2021/03/11 01:22:17;;;;;;;9.77;6.17;;;7.40;99.90;;;;;;5043425;28;20206;-74
2021/03/11 01:24:43;;;;;;;9.20;6.13;;;7.40;99.90;;;;;;5044796;28;20917;-74
2021/03/11 01:27:09;;;;;;;9.83;6.43;;;7.40;99.90;;;;;;5043418;28;20246;-74
2021/03/11 01:29:35;;;;;;;13.73;6.73;;;7.40;99.90;;;;;;5041622;28;20292;-74
2021/03/11 01:32:02;;;;;;;9.37;6.20;;;7.40;99.90;;;;;;5058547;28;20196;-74
2021/03/11 01:34:28;;;;;;;12.00;6.80;;;7.40;99.90;;;;;;5020437;28;20215;-74
2021/03/11 01:36:55;;;;;;;7.83;5.13;;;7.40;99.90;;;;;;5050394;28;20223;-74
2021/03/11 01:39:21;;;;;;;10.30;6.97;;;7.30;99.90;;;;;;5048110;28;20211;-74
2021/03/11 01:41:47;;;;;;;13.50;7.03;;;7.30;99.90;;;;;;5062830;28;20714;-74
2021/03/11 01:44:14;;;;;;;10.10;5.93;;;7.30;99.90;;;;;;5058479;28;20355;-74
2021/03/11 01:46:40;;;;;;;7.13;4.93;;;7.30;99.90;;;;;;5060773;28;20272;-74
2021/03/11 01:49:06;;;;;;;7.53;5.20;;;7.30;99.90;;;;;;5025404;28;20192;-74
2021/03/11 01:51:33;;;;;;;9.47;6.27;;;7.30;99.90;;;;;;5034499;28;20200;-74
2021/03/11 01:54:00;;;;;;;12.87;7.40;;;7.30;99.90;;;;;;5048781;28;20684;-75
2021/03/11 01:56:27;;;;;;;10.63;7.27;;;7.30;99.90;;;;;;5059839;28;20207;-74
2021/03/11 01:58:53;;;;;;;12.33;6.73;;;7.40;99.90;;;;;;5061986;28;20289;-74
2021/03/11 02:01:20;;;;;;;9.83;6.07;;;7.30;99.90;;;;;;5057804;28;20293;-75
2021/03/11 02:03:47;;;;;;;10.33;6.30;;;7.30;99.90;;;;;;5056123;28;20215;-75
2021/03/11 02:06:13;;;;;;;10.50;5.77;;;7.40;99.90;;;;;;5029991;28;20219;-74
2021/03/11 02:08:42;;;;;;;9.97;5.60;;;7.40;99.90;;;;;;5057392;28;20330;-74
2021/03/11 02:11:14;;;;;;;9.20;6.13;;;7.40;99.90;;;;;;5059033;28;20200;-75
2021/03/11 02:13:45;;;;;;;7.90;5.13;;;7.40;99.90;;;;;;5060402;28;20203;-75
2021/03/11 02:16:44;;;;;;;11.63;5.90;;;7.40;99.90;;;;;;5055006;28;20271;-74
2021/03/11 02:19:29;;;;;;;7.60;4.63;;;7.40;99.90;;;;;;5041888;28;20207;-75
2021/03/11 02:22:28;;;;;;;7.93;4.97;;;7.30;99.90;;;;;;5060054;28;20203;-75
2021/03/11 02:25:30;;;;;;;8.90;5.57;;;7.30;99.90;;;;;;5045096;28;20229;-75
2021/03/11 02:28:12;;;;;;;8.87;4.73;;;7.30;99.90;;;;;;5023934;28;20238;-75
2021/03/11 02:30:40;;;;;;;12.40;6.37;;;7.30;99.90;;;;;;5063355;28;20268;-75
2021/03/11 02:33:08;;;;;;;7.83;5.40;;;7.30;99.90;;;;;;5058820;28;20309;-75
2021/03/11 02:35:37;;;;;;;8.20;5.67;;;7.30;99.90;;;;;;5043030;28;20297;-75
2021/03/11 02:38:07;;;;;;;7.77;5.63;;;7.30;99.90;;;;;;5064356;28;20692;-74
2021/03/11 02:40:35;;;;;;;6.23;4.43;;;7.40;99.90;;;;;;5047068;28;20395;-74
2021/03/11 02:43:08;;;;;;;7.47;5.07;;;7.40;99.90;;;;;;5064348;28;20277;-74
2021/03/11 02:45:34;;;;;;;10.03;5.23;;;7.40;99.90;;;;;;5060264;28;20358;-75
2021/03/11 02:48:08;;;;;;;8.53;5.83;;;7.40;99.90;;;;;;5046386;28;20569;-74
2021/03/11 02:50:36;;;;;;;8.37;5.43;;;7.50;99.90;;;;;;5063330;28;20690;-74
2021/03/11 02:53:07;;;;;;;7.23;4.33;;;7.50;99.90;;;;;;5065161;28;20202;-75
2021/03/11 02:55:34;;;;;;;6.37;4.57;;;7.50;99.90;;;;;;5051311;28;20205;-74
2021/03/11 02:58:03;;;;;;;7.87;5.50;;;7.60;99.90;;;;;;5044588;28;20204;-74
2021/03/11 03:00:30;;;;;;;9.30;4.23;;;7.60;99.90;;;;;;5039412;28;20297;-74
2021/03/11 03:02:57;;;;;;;9.57;5.13;;;7.70;99.90;;;;;;5043725;28;20202;-75
2021/03/11 03:05:29;;;;;;;8.50;5.90;;;7.80;99.90;;;;;;5063505;28;20230;-74
2021/03/11 03:07:58;;;;;;;9.77;5.20;;;7.80;99.90;;;;;;5061963;28;20588;-74
2021/03/11 03:10:28;;;;;;;9.63;5.03;;;7.80;99.90;;;;;;5062369;28;20285;-74
2021/03/11 03:12:57;;;;;;;8.17;5.97;;;7.90;99.90;;;;;;5061519;28;20221;-74
2021/03/11 03:15:24;;;;;;;9.00;6.27;;;8.00;99.90;;;;;;5062472;28;20318;-74
2021/03/11 03:17:52;;;;;;;8.80;5.00;;;7.90;99.90;;;;;;5061339;28;20201;-74
2021/03/11 03:20:22;;;;;;;7.80;5.27;;;8.00;99.90;;;;;;5063176;28;20238;-74
2021/03/11 03:22:49;;;;;;;10.07;5.77;;;8.10;99.90;;;;;;5059821;28;20341;-73
2021/03/11 03:25:17;;;;;;;9.53;6.27;;;8.10;99.90;;;;;;5046154;28;20228;-74
2021/03/11 03:27:44;;;;;;;7.33;5.00;;;8.10;99.90;;;;;;5059803;28;20272;-73
2021/03/11 03:30:14;;;;;;;11.93;6.27;;;8.10;99.90;;;;;;5062533;28;20232;-74
2021/03/11 03:32:41;;;;;;;8.67;5.53;;;8.10;99.90;;;;;;5058352;28;20219;-75
2021/03/11 03:35:09;;;;;;;9.40;5.73;;;8.10;99.90;;;;;;5063886;28;20226;-74
2021/03/11 03:37:37;;;;;;;9.17;6.47;;;8.10;99.90;;;;;;5048622;28;20243;-74
2021/03/11 03:40:05;;;;;;;12.30;6.57;;;8.20;99.90;;;;;;5048337;28;20723;-74
2021/03/11 03:42:36;;;;;;;9.83;6.63;;;8.20;99.90;;;;;;5059989;28;20623;-75
2021/03/11 03:45:04;;;;;;;10.07;5.57;;;8.20;99.90;;;;;;5049559;28;20269;-74
2021/03/11 03:47:32;;;;;;;10.57;6.67;;;8.20;99.90;;;;;;5059325;28;20202;-75
2021/03/11 03:49:59;;;;;;;11.57;6.47;;;8.30;99.90;;;;;;5041761;28;20214;-74
2021/03/11 03:52:27;;;;;;;12.13;7.10;;;8.30;99.90;;;;;;5047910;28;20232;-75
2021/03/11 03:54:56;;;;;;;11.83;6.57;;;8.30;99.90;;;;;;5045313;28;20481;-76
2021/03/11 03:57:25;;;;;;;9.47;6.20;;;8.30;99.90;;;;;;5059684;28;20233;-76
2021/03/11 03:59:53;;;;;;;10.33;5.37;;;8.30;99.90;;;;;;5042448;28;20298;-77
2021/03/11 04:02:21;;;;;;;11.13;6.70;;;8.40;99.90;;;;;;5065303;28;20295;-75
2021/03/11 04:04:52;;;;;;;13.07;8.33;;;8.40;99.90;;;;;;5027174;28;20203;-77
2021/03/11 04:07:25;;;;;;;11.90;7.07;;;8.40;99.90;;;;;;5060560;28;20583;-76
2021/03/11 04:09:53;;;;;;;11.50;6.87;;;8.40;99.90;;;;;;5068256;28;20202;-77
2021/03/11 04:12:20;;;;;;;11.83;6.63;;;8.50;99.90;;;;;;5057588;28;20217;-76
2021/03/11 04:14:48;;;;;;;11.60;6.53;;;8.50;99.90;;;;;;5064196;28;20199;-75
2021/03/11 04:17:15;;;;;;;10.57;6.57;;;8.60;99.90;;;;;;5061783;28;20229;-75
2021/03/11 04:19:43;;;;;;;8.60;4.87;;;8.70;99.90;;;;;;5063224;28;20277;-75
2021/03/11 04:22:10;;;;;;;8.67;6.37;;;8.70;99.90;;;;;;5047595;28;20651;-76
2021/03/11 04:24:38;;;;;;;10.10;6.60;;;8.80;99.90;;;;;;5036336;28;20633;-76
2021/03/11 04:27:07;;;;;;;9.50;6.03;;;8.70;99.90;;;;;;5057231;28;20309;-75
2021/03/11 04:29:34;;;;;;;7.80;5.43;;;8.80;99.90;;;;;;5040067;28;20210;-76
2021/03/11 04:32:01;;;;;;;9.90;5.97;;;8.90;99.90;;;;;;5042801;28;20568;-76
2021/03/11 04:34:29;;;;;;;11.50;6.67;;;8.90;99.90;;;;;;5059062;28;20268;-75
2021/03/11 04:36:56;;;;;;;10.63;6.27;;;8.90;99.90;;;;;;5062091;28;20228;-76
2021/03/11 04:39:25;;;;;;;10.27;6.97;;;8.90;99.90;;;;;;5039548;28;20208;-76
2021/03/11 04:41:53;;;;;;;9.37;5.70;;;8.90;99.90;;;;;;5059540;28;20211;-75
2021/03/11 04:44:24;;;;;;;8.67;6.17;;;8.90;99.90;;;;;;5049791;28;20202;-76
2021/03/11 04:46:52;;;;;;;9.03;5.10;;;8.90;99.90;;;;;;5056615;28;20262;-76
2021/03/11 04:49:21;;;;;;;8.60;5.63;;;9.00;99.90;;;;;;5059322;28;20282;-75
2021/03/11 04:51:48;;;;;;;10.00;7.47;;;9.10;99.90;;;;;;5040806;28;20306;-76
2021/03/11 04:54:15;;;;;;;10.53;6.20;;;9.10;99.90;;;;;;5061706;28;20690;-76
2021/03/11 04:56:53;;;;;;;8.73;5.47;;;9.10;99.90;;;;;;5049905;28;20301;-76
2021/03/11 04:59:20;;;;;;;11.03;7.03;;;9.20;99.90;;;;;;5059704;28;21172;-75
2021/03/11 05:01:55;;;;;;;10.07;6.50;;;9.20;99.90;;;;;;5046033;28;20517;-75
2021/03/11 05:04:22;;;;;;;8.77;5.37;;;9.20;99.90;;;;;;5056154;28;20207;-75
2021/03/11 05:06:48;;;;;;;8.70;6.10;;;9.20;99.90;;;;;;5047369;28;20201;-75
2021/03/11 05:09:15;;;;;;;8.70;5.83;;;9.30;99.90;;;;;;5044569;28;20293;-76
2021/03/11 05:11:43;;;;;;;10.97;6.27;;;9.40;99.90;;;;;;5049995;28;20217;-76
2021/03/11 05:14:10;;;;;;;10.43;6.27;;;9.50;99.90;;;;;;5047048;28;20302;-77
2021/03/11 05:16:36;;;;;;;9.87;5.87;;;9.50;99.90;;;;;;5059264;28;20222;-76
2021/03/11 05:19:03;;;;;;;10.77;4.90;;;9.50;99.90;;;;;;5047873;28;20278;-76
2021/03/11 05:21:29;;;;;;;7.03;4.77;;;9.70;99.90;;;;;;5047007;28;20251;-75
2021/03/11 05:23:58;;;;;;;7.73;5.37;;;9.70;99.90;;;;;;5042179;28;20202;-76
2021/03/11 05:26:26;;;;;;;8.07;5.20;;;9.70;99.90;;;;;;5056399;28;20234;-75
2021/03/11 05:28:53;;;;;;;8.07;5.30;;;9.70;99.90;;;;;;5064182;28;20217;-76
2021/03/11 05:31:20;;;;;;;9.03;4.73;;;9.70;99.90;;;;;;5044880;28;20230;-76
2021/03/11 05:33:47;;;;;;;9.73;5.83;;;9.60;99.90;;;;;;5054006;28;20290;-76
2021/03/11 05:36:13;;;;;;;7.87;4.50;;;9.70;99.90;;;;;;5060057;28;20260;-75
2021/03/11 05:38:44;;;;;;;8.20;5.00;;;9.70;99.90;;;;;;5031340;28;20211;-76
2021/03/11 05:41:12;;;;;;;10.70;4.70;;;9.70;99.90;;;;;;5048778;28;20218;-75
2021/03/11 05:43:42;;;;;;;10.13;5.80;;;9.80;99.90;;;;;;5049310;28;20208;-75
2021/03/11 05:46:10;;;;;;;9.40;5.20;;;9.80;99.90;;;;;;5058758;28;20313;-75
2021/03/11 05:48:39;;;;;;;7.17;4.77;;;9.80;99.90;;;;;;5061345;28;20242;-75
2021/03/11 05:51:08;;;;;;;6.60;3.77;;;9.80;99.90;;;;;;5058125;28;20270;-76
2021/03/11 05:53:37;;;;;;;10.67;5.90;;;9.90;99.90;;;;;;5043154;28;20235;-75
2021/03/11 05:56:05;;;;;;;6.57;3.43;;;9.90;99.90;;;;;;5043351;28;20197;-75
2021/03/11 05:58:32;;;;;;;8.40;3.73;;;10.00;99.90;;;;;;5048124;28;20196;-76
2021/03/11 06:01:00;;;;;;;7.27;4.23;;;10.00;99.90;;;;;;5038997;28;20215;-75
2021/03/11 06:03:31;;;;;;;6.73;4.97;;;10.00;99.90;;;;;;5056190;28;20198;-74
2021/03/11 06:05:59;;;;;;;7.93;4.27;;;10.00;99.90;;;;;;5060588;28;20274;-75
2021/03/11 06:08:26;;;;;;;5.80;4.60;;;10.00;99.90;;;;;;5058745;28;20309;-76
2021/03/11 06:10:55;;;;;;;8.40;4.43;;;10.10;99.90;;;;;;5059277;28;20519;-75
2021/03/11 06:13:23;;;;;;;6.80;4.30;;;10.10;99.90;;;;;;5048392;28;20233;-76
2021/03/11 06:15:57;;;;;;;9.83;4.17;;;10.20;99.90;;;;;;5056624;28;20202;-75
2021/03/11 06:18:25;;;;;;;9.97;4.83;;;10.20;99.90;;;;;;5037157;28;20211;-76
2021/03/11 06:20:52;;;;;;;10.20;4.87;;;10.30;99.90;;;;;;5053206;28;20243;-75
2021/03/11 06:23:18;;;;;;;9.00;4.53;;;10.30;99.90;;;;;;5056961;28;20672;-76
2021/03/11 06:25:44;;;;;;;8.20;4.10;;;10.20;99.90;;;;;;5056523;28;20230;-75
2021/03/11 06:28:11;;;;;;;6.37;4.00;;;10.10;99.90;;;;;;5038775;28;20198;-75
2021/03/11 06:30:41;;;;;;;7.00;4.43;;;10.10;99.90;;;;;;5059038;28;20200;-75
2021/03/11 06:33:08;;;;;;;5.73;4.10;;;10.00;99.90;;;;;;5041755;28;20540;-76
2021/03/11 06:35:39;;;;;;;7.97;4.23;;;10.00;99.90;;;;;;5043033;28;20210;-75
2021/03/11 06:38:05;;;;;;;5.27;2.97;;;10.00;99.90;;;;;;5045167;28;20216;-76
2021/03/11 06:40:31;;;;;;;3.83;2.27;;;10.30;99.90;;;;;;5061543;28;20716;-76
2021/03/11 06:43:12;;;;;;;6.33;3.47;;;10.40;99.90;;;;;;5046079;28;20203;-75
2021/03/11 06:45:39;;;;;;;4.07;2.33;;;10.40;99.90;;;;;;5054605;28;20206;-76
2021/03/11 06:48:19;;;;;;;6.23;3.33;;;10.40;99.90;;;;;;5042773;28;20219;-75
2021/03/11 06:50:45;;;;;;;5.50;2.07;;;10.40;99.90;;;;;;5053686;28;20229;-76
2021/03/11 06:53:12;;;;;;;3.53;2.50;;;10.40;99.90;;;;;;5037914;28;20206;-76
2021/03/11 06:55:38;;;;;;;4.03;2.63;;;10.40;99.90;;;;;;5056630;28;20584;-76
2021/03/11 06:58:26;;;;;;;3.53;2.60;;;10.30;99.90;;;;;;5047811;28;20316;-78
2021/03/11 07:01:03;;;;;;;7.67;3.13;;;10.40;99.90;;;;;;5032158;28;20230;-78
2021/03/11 07:03:43;;;;;;;4.40;2.70;;;10.40;99.90;;;;;;5052911;28;20207;-78
2021/03/11 07:06:23;;;;;;;4.67;2.43;;;10.50;99.90;;;;;;5054150;28;20566;-75
2021/03/11 07:08:50;;;;;;;3.63;2.43;;;10.50;99.90;;;;;;5026392;28;20210;-76
2021/03/11 07:11:17;;;;;;;4.07;2.53;;;10.40;99.90;;;;;;5041081;28;20206;-78
2021/03/11 07:13:44;;;;;;;6.13;2.67;;;10.50;99.90;;;;;;5056493;28;20230;-76
2021/03/11 07:16:12;;;;;;;3.10;2.10;;;10.50;99.90;;;;;;5058696;28;20208;-74
2021/03/11 07:18:39;;;;;;;5.93;2.40;;;10.60;99.90;;;;;;5053768;28;20203;-77
2021/03/11 07:21:06;;;;;;;8.17;3.00;;;10.50;99.90;;;;;;5054724;28;20249;-75
2021/03/11 07:23:43;;;;;;;2.50;1.73;;;10.60;99.90;;;;;;5054721;28;20332;-76
2021/03/11 07:26:10;;;;;;;2.63;2.00;;;10.60;99.90;;;;;;5056895;28;20317;-76
2021/03/11 07:28:44;;;;;;;3.17;1.60;;;10.70;99.90;;;;;;5061923;28;20662;-76
2021/03/11 07:31:10;;;;;;;4.00;1.63;;;10.70;99.90;;;;;;5059539;28;20215;-76
2021/03/11 07:33:38;;;;;;;3.53;1.93;;;10.70;99.90;;;;;;5059708;28;20253;-75
2021/03/11 07:36:08;;;;;;;4.20;1.67;;;10.70;99.90;;;;;;5038225;28;20247;-76
2021/03/11 07:38:37;;;;;;;2.93;1.30;;;10.70;99.90;;;;;;5057073;28;20224;-76
2021/03/11 07:41:09;;;;;;;2.47;1.70;;;10.90;99.90;;;;;;5031334;28;20255;-76
2021/03/11 07:43:36;;;;;;;3.73;1.47;;;11.10;99.90;;;;;;5039465;28;20202;-76
2021/03/11 07:46:04;;;;;;;7.53;1.67;;;11.10;99.90;;;;;;5060162;28;20211;-75
2021/03/11 07:48:31;;;;;;;5.77;1.43;;;11.10;99.90;;;;;;5037596;28;20203;-76
2021/03/11 07:50:58;;;;;;;7.63;2.20;;;11.20;99.90;;;;;;5056400;28;21851;-76
2021/03/11 07:53:25;;;;;;;5.53;1.30;;;11.40;99.90;;;;;;5022950;28;20286;-78
2021/03/11 07:55:54;;;;;;;3.60;1.47;;;11.40;99.90;;;;;;5056253;28;22139;-76
2021/03/11 07:58:40;;;;;;;6.13;1.40;;;11.40;99.90;;;;;;5055157;28;20263;-73
2021/03/11 08:01:08;;;;;;;7.27;2.10;;;11.50;99.90;;;;;;5040272;28;20294;-75
2021/03/11 08:03:37;;;;;;;6.83;1.67;;;11.60;99.90;;;;;;5045842;28;20346;-75
2021/03/11 08:06:22;;;;;;;7.10;1.77;;;11.80;99.90;;;;;;5031630;28;20285;-75
2021/03/11 08:08:49;;;;;;;8.60;1.60;;;11.80;99.90;;;;;;5061990;28;20206;-76
2021/03/11 08:11:42;;;;;;;4.17;1.23;;;11.70;99.90;;;;;;5047534;28;20226;-74
2021/03/11 08:14:25;;;;;;;2.97;1.40;;;12.00;99.90;;;;;;5044731;28;20200;-76
2021/03/11 08:16:53;;;;;;;3.90;1.33;;;12.10;99.90;;;;;;5064896;28;20240;-77
2021/03/11 08:19:46;;;;;;;3.27;1.40;;;12.10;99.90;;;;;;5061706;28;20235;-76
2021/03/11 08:22:12;;;;;;;10.20;1.60;;;12.10;99.90;;;;;;5044719;28;20712;-77
2021/03/11 08:24:39;;;;;;;3.70;1.40;;;12.30;99.90;;;;;;5045788;28;20277;-77
2021/03/11 08:27:37;;;;;;;9.17;1.97;;;12.50;99.90;;;;;;5064404;28;20671;-77
2021/03/11 08:30:06;;;;;;;7.33;1.40;;;12.40;99.90;;;;;;5062740;28;20257;-75
2021/03/11 08:32:52;;;;;;;6.70;1.70;;;12.30;99.90;;;;;;5063040;28;20257;-75
2021/03/11 08:35:29;;;;;;;8.10;1.50;;;12.20;99.90;;;;;;5045513;28;20309;-75
2021/03/11 08:37:56;;;;;;;3.37;1.33;;;12.20;99.90;;;;;;5061288;28;20306;-77
2021/03/11 08:40:36;;;;;;;8.77;1.70;;;12.20;99.90;;;;;;5041948;28;21465;-79
2021/03/11 08:43:03;;;;;;;5.20;1.77;;;12.10;99.90;;;;;;5062055;28;20251;-76
2021/03/11 08:45:36;;;;;;;10.10;1.77;;;12.10;99.90;;;;;;5070096;28;20302;-75
2021/03/11 08:48:18;;;;;;;6.43;1.57;;;12.20;99.90;;;;;;5063376;28;20555;-75
2021/03/11 08:50:48;;;;;;;13.13;2.63;;;12.10;99.90;;;;;;5060888;28;20216;-77
2021/03/11 08:53:34;;;;;;;10.30;2.30;;;12.10;99.90;;;;;;5060980;28;20264;-76
2021/03/11 08:56:01;;;;;;;12.33;2.67;;;12.10;99.90;;;;;;5059947;28;20289;-76
2021/03/11 08:58:28;;;;;;;14.37;2.73;;;12.20;99.90;;;;;;5061483;28;20538;-75
2021/03/11 09:01:01;;;;;;;11.90;2.57;;;12.30;99.90;;;;;;5066401;28;20240;-77
2021/03/11 09:03:41;;;;;;;15.77;1.90;;;12.50;99.90;;;;;;5048073;28;20264;-76
2021/03/11 09:06:09;;;;;;;17.00;2.67;;;12.60;99.90;;;;;;5061212;28;20598;-79
2021/03/11 09:08:44;;;;;;;15.67;3.27;;;12.80;99.90;;;;;;5048661;28;20217;-76
2021/03/11 09:11:20;;;;;;;16.30;2.87;;;12.70;99.90;;;;;;5024249;28;20230;-75
2021/03/11 09:13:49;;;;;;;18.70;3.17;;;12.80;99.90;;;;;;5049958;28;20197;-77
2021/03/11 09:16:16;;;;;;;16.73;2.60;;;12.70;99.90;;;;;;5061885;28;20210;-78
2021/03/11 09:18:42;;;;;;;6.60;1.40;;;12.90;99.90;;;;;;5046413;28;20214;-75
2021/03/11 09:21:09;;;;;;;10.37;2.47;;;12.90;99.90;;;;;;5037425;28;20236;-76
2021/03/11 09:23:38;;;;;;;12.87;2.53;;;12.80;99.90;;;;;;5029405;28;20194;-76
2021/03/11 09:26:06;;;;;;;12.80;3.27;;;12.90;99.90;;;;;;5056101;28;20301;-79
2021/03/11 09:28:34;;;;;;;14.87;2.67;;;12.70;99.90;;;;;;5055868;28;20233;-78
2021/03/11 09:31:01;;;;;;;9.93;2.63;;;12.60;99.90;;;;;;5064051;28;20282;-79
2021/03/11 09:33:27;;;;;;;11.20;2.53;;;12.50;99.90;;;;;;5050771;28;20213;-78
2021/03/11 09:35:54;;;;;;;17.87;2.93;;;12.40;99.90;;;;;;5042351;28;20209;-77
2021/03/11 09:38:25;;;;;;;12.47;3.57;;;12.30;99.90;;;;;;5046381;28;20275;-76
2021/03/11 09:41:01;;;;;;;13.53;2.97;;;12.30;99.90;;;;;;5059473;28;20298;-77
2021/03/11 09:43:33;;;;;;;12.87;2.53;;;12.20;99.90;;;;;;5064491;28;20274;-76
2021/03/11 09:46:14;;;;;;;9.87;1.80;;;12.30;99.90;;;;;;5043962;28;20252;-77
2021/03/11 09:48:44;;;;;;;11.73;2.17;;;12.30;99.90;;;;;;5043442;28;21048;-76
2021/03/11 09:51:25;;;;;;;12.80;2.33;;;12.30;99.90;;;;;;5045738;28;20236;-77
2021/03/11 09:53:59;;;;;;;10.93;2.07;;;12.40;99.90;;;;;;5049437;28;20196;-77
2021/03/11 09:56:52;;;;;;;14.83;3.30;;;12.30;99.90;;;;;;5046639;28;20216;-75
2021/03/11 09:59:19;;;;;;;9.27;1.73;;;12.30;99.90;;;;;;5043877;28;20207;-75
2021/03/11 10:01:48;;;;;;;12.33;2.33;;;12.30;99.90;;;;;;5052119;28;20233;-76
2021/03/11 10:04:24;;;;;;;15.50;2.10;;;12.30;99.90;;;;;;5062723;28;20524;-77
2021/03/11 10:07:02;;;;;;;13.50;2.70;;;12.20;99.90;;;;;;5043201;28;20226;-74
2021/03/11 10:09:39;;;;;;;15.00;2.40;;;12.20;99.90;;;;;;5061358;28;20678;-76
2021/03/11 10:12:06;;;;;;;17.03;3.27;;;12.20;99.90;;;;;;5045379;28;20274;-75
2021/03/11 10:14:33;;;;;;;9.67;2.27;;;12.20;99.90;;;;;;5042023;28;20201;-77
2021/03/11 10:17:05;;;;;;;11.77;3.20;;;12.30;99.90;;;;;;5053891;28;20206;-77
2021/03/11 10:19:36;;;;;;;9.67;2.30;;;12.40;99.90;;;;;;5043199;28;20209;-77
2021/03/11 10:22:07;;;;;;;10.73;2.40;;;12.50;99.90;;;;;;5043735;28;20320;-76
2021/03/11 10:24:42;;;;;;;11.23;1.97;;;12.50;99.90;;;;;;5060656;28;20252;-78
2021/03/11 10:27:32;;;;;;;22.93;3.63;;;12.50;99.90;;;;;;5058377;28;20200;-80
2021/03/11 10:30:08;;;;;;;6.00;1.87;;;12.50;99.90;;;;;;5045162;28;20221;-80
2021/03/11 10:32:37;;;;;;;11.67;2.50;;;12.50;99.90;;;;;;5061373;28;20258;-80
2021/03/11 10:35:07;;;;;;;13.17;2.50;;;12.50;99.90;;;;;;5040649;28;20912;-78
2021/03/11 10:37:42;;;;;;;9.23;3.50;;;12.40;99.90;;;;;;5044445;28;20223;-81
2021/03/11 10:40:20;;;;;;;14.13;3.10;;;12.30;99.90;;;;;;5058842;28;20209;-78
2021/03/11 10:42:54;;;;;;;12.80;2.30;;;12.30;99.90;;;;;;5027000;28;20209;-79
2021/03/11 10:45:24;;;;;;;10.80;3.17;;;12.30;99.90;;;;;;5053252;28;20216;-81
2021/03/11 10:48:04;;;;;;;25.47;3.37;;;12.30;99.90;;;;;;5034127;28;20189;-80
2021/03/11 10:50:45;;;;;;;17.40;2.63;;;12.30;99.90;;;;;;5055578;28;20550;-81
2021/03/11 10:53:13;;;;;;;10.13;1.70;;;12.40;99.90;;;;;;5046956;28;20293;-81
2021/03/11 10:55:41;;;;;;;11.57;1.93;;;12.50;99.90;;;;;;5025025;28;20217;-81
2021/03/11 10:58:27;;;;;;;12.83;3.07;;;12.40;99.90;;;;;;5045798;28;20238;-82
2021/03/11 11:01:13;;;;;;;13.60;4.17;;;12.40;99.90;;;;;;5047937;28;20241;-79
2021/03/11 11:03:41;;;;;;;13.20;2.77;;;12.40;99.90;;;;;;5064489;28;20210;-81
2021/03/11 11:06:08;;;;;;;13.63;3.00;;;12.30;99.90;;;;;;5047781;28;20210;-81
2021/03/11 11:08:39;;;;;;;17.10;3.63;;;12.30;99.90;;;;;;5065488;28;20249;-81
2021/03/11 11:11:05;;;;;;;17.13;2.70;;;12.30;99.90;;;;;;5036792;28;20223;-81
2021/03/11 11:13:32;;;;;;;7.47;2.30;;;12.30;99.90;;;;;;5050990;28;20206;-81
2021/03/11 11:15:59;;;;;;;16.80;2.97;;;12.40;99.90;;;;;;5048373;28;20207;-78
2021/03/11 11:18:25;;;;;;;10.47;2.30;;;12.40;99.90;;;;;;5036028;28;20196;-81
2021/03/11 11:20:52;;;;;;;12.60;2.23;;;12.50;99.90;;;;;;5067317;28;20743;-78
2021/03/11 11:23:18;;;;;;;14.67;2.20;;;12.60;99.90;;;;;;5049562;28;20199;-79
2021/03/11 11:25:44;;;;;;;9.67;2.23;;;12.70;99.90;;;;;;5063759;28;20199;-79
2021/03/11 11:28:11;;;;;;;8.63;2.37;;;12.60;99.90;;;;;;5034251;28;20268;-77
2021/03/11 11:30:38;;;;;;;11.37;2.17;;;12.60;99.90;;;;;;5062833;28;20204;-78
2021/03/11 11:33:06;;;;;;;9.77;2.60;;;12.60;99.90;;;;;;5061995;28;21045;-77
2021/03/11 11:35:33;;;;;;;6.67;2.37;;;12.80;99.90;;;;;;5046337;28;20545;-76
2021/03/11 11:37:59;;;;;;;9.10;2.30;;;12.80;99.90;;;;;;5037590;28;20196;-76
2021/03/11 11:40:26;;;;;;;8.17;1.77;;;12.80;99.90;;;;;;5051038;28;20211;-77
2021/03/11 11:42:53;;;;;;;10.30;1.87;;;12.90;99.90;;;;;;5050520;28;20554;-76
2021/03/11 11:45:19;;;;;;;6.30;2.40;;;13.00;99.90;;;;;;5050236;28;20226;-76
2021/03/11 11:47:46;;;;;;;12.20;2.10;;;12.90;99.90;;;;;;5048822;28;20297;-76
2021/03/11 11:50:13;;;;;;;10.40;2.17;;;13.00;99.90;;;;;;5049812;28;20329;-77
2021/03/11 11:52:41;;;;;;;8.03;2.03;;;12.80;99.90;;;;;;5063212;28;20246;-76
2021/03/11 11:55:10;;;;;;;12.90;1.93;;;12.80;99.90;;;;;;5045515;28;20196;-77
2021/03/11 11:57:38;;;;;;;8.10;1.70;;;13.00;99.90;;;;;;5060204;28;20200;-75
2021/03/11 12:00:08;;;;;;;8.83;1.63;;;12.90;99.90;;;;;;5062530;28;20631;-75
2021/03/11 12:02:36;;;;;;;8.23;2.37;;;12.80;99.90;;;;;;5064405;28;20233;-78
2021/03/11 12:05:05;;;;;;;12.37;2.20;;;12.80;99.90;;;;;;5064986;28;20258;-76
2021/03/11 12:07:33;;;;;;;10.27;1.70;;;12.70;99.90;;;;;;5062888;28;20210;-77
2021/03/11 12:09:59;;;;;;;8.20;2.03;;;12.70;99.90;;;;;;5059435;28;20207;-76
2021/03/11 12:12:26;;;;;;;10.43;1.97;;;12.70;99.90;;;;;;5048345;28;20206;-77
2021/03/11 12:14:52;;;;;;;9.23;1.57;;;12.60;99.90;;;;;;5043636;28;20204;-77
2021/03/11 12:17:19;;;;;;;13.53;2.87;;;12.50;99.90;;;;;;5043976;28;20199;-77
2021/03/11 12:19:46;;;;;;;15.23;2.03;;;12.40;99.90;;;;;;5046435;28;20209;-75
2021/03/11 12:22:13;;;;;;;11.37;1.97;;;12.40;99.90;;;;;;5061205;28;20265;-76
2021/03/11 12:24:40;;;;;;;14.70;2.10;;;12.50;99.90;;;;;;5046900;28;20222;-77
2021/03/11 12:27:07;;;;;;;13.57;2.73;;;12.50;99.90;;;;;;5046794;28;20204;-78
2021/03/11 12:29:33;;;;;;;7.20;1.37;;;12.40;99.90;;;;;;5044007;28;20240;-78
2021/03/11 12:32:00;;;;;;;11.43;2.47;;;12.60;99.90;;;;;;5060939;28;20722;-78
2021/03/11 12:34:27;;;;;;;10.43;2.77;;;12.50;99.90;;;;;;5048177;28;20203;-78
2021/03/11 12:36:53;;;;;;;24.03;2.80;;;12.60;99.90;;;;;;5047473;28;20214;-80
2021/03/11 12:39:20;;;;;;;13.57;2.93;;;12.50;99.90;;;;;;5047006;28;20536;-77
2021/03/11 12:41:46;;;;;;;6.77;2.10;;;12.40;99.90;;;;;;5031896;28;20619;-76
2021/03/11 12:44:13;;;;;;;15.50;2.07;;;12.40;99.90;;;;;;5058168;28;20220;-77
2021/03/11 12:46:39;;;;;;;5.83;2.00;;;12.70;99.90;;;;;;5047846;28;20238;-79
2021/03/11 12:49:09;;;;;;;10.17;1.53;;;12.60;99.90;;;;;;5056966;28;20200;-77
2021/03/11 12:51:37;;;;;;;12.00;2.03;;;12.60;99.90;;;;;;5062240;28;20211;-78
2021/03/11 12:54:04;;;;;;;12.27;1.53;;;12.90;99.90;;;;;;5062368;28;20211;-77
2021/03/11 12:56:31;;;;;;;9.20;1.67;;;12.70;99.90;;;;;;5062601;28;20252;-78
2021/03/11 12:58:57;;;;;;;8.57;2.33;;;12.70;99.90;;;;;;5045444;28;21089;-78